UAL1297 KIAH-KEGE
Flight info
| Callsign | UAL1297 |
|---|---|
| Flight time | N/A |
| Altitude | 36000 |
| Route | STYCK8 DOLEY MRMAC ROLLS TOTOE LPINE VAAIL1 |
| Aircraft | B737/M-SDE2E3FGHIRWXY/LB1 |
Departure
| Time | N/A |
|---|---|
| Airport | George Bush Intercontinental Airport (KIAH) |
Arrival
| Time | 2026-04-21 20:36 |
|---|---|
| Airport | Eagle County Regional Airport (KEGE) |
| Time | Latitude | Longitude | Altitude | Speed | Heading |
|---|---|---|---|---|---|
| 2026-04-21 19:51 | 38.02121 | -102.22495 | 35893 ft | 463 kts | 316° |
| 2026-04-21 19:51 | 38.04358 | -102.25427 | 35902 ft | 463 kts | 315° |
| 2026-04-21 19:52 | 38.08831 | -102.31300 | 35916 ft | 462 kts | 315° |
| 2026-04-21 19:52 | 38.13299 | -102.37178 | 35935 ft | 462 kts | 316° |
| 2026-04-21 19:53 | 38.17758 | -102.43055 | 35938 ft | 462 kts | 315° |
| 2026-04-21 19:53 | 38.22216 | -102.48941 | 35959 ft | 462 kts | 315° |
| 2026-04-21 19:54 | 38.26672 | -102.54836 | 35957 ft | 462 kts | 315° |
| 2026-04-21 19:54 | 38.31121 | -102.60733 | 35941 ft | 462 kts | 314° |
| 2026-04-21 19:55 | 38.35574 | -102.66646 | 35927 ft | 462 kts | 315° |
| 2026-04-21 19:55 | 38.40014 | -102.72554 | 35903 ft | 462 kts | 315° |
| 2026-04-21 19:56 | 38.44453 | -102.78470 | 35899 ft | 461 kts | 314° |
| 2026-04-21 19:56 | 38.48862 | -102.84358 | 35895 ft | 461 kts | 314° |
| 2026-04-21 19:57 | 38.53292 | -102.90286 | 35903 ft | 461 kts | 314° |
| 2026-04-21 19:57 | 38.57718 | -102.96219 | 35901 ft | 461 kts | 314° |
| 2026-04-21 19:58 | 38.62145 | -103.02165 | 35900 ft | 461 kts | 314° |
| 2026-04-21 19:58 | 38.65817 | -103.07106 | 35903 ft | 461 kts | 314° |
| 2026-04-21 19:59 | 38.70234 | -103.13060 | 35903 ft | 461 kts | 314° |
| 2026-04-21 19:59 | 38.74651 | -103.19024 | 35907 ft | 461 kts | 313° |
| 2026-04-21 20:00 | 38.79068 | -103.25001 | 35911 ft | 462 kts | 313° |
| 2026-04-21 20:00 | 38.83485 | -103.30989 | 35922 ft | 462 kts | 313° |
| 2026-04-21 20:01 | 38.87868 | -103.36942 | 35918 ft | 462 kts | 313° |
| 2026-04-21 20:01 | 38.92277 | -103.42943 | 35918 ft | 461 kts | 313° |
| 2026-04-21 20:02 | 38.96676 | -103.48941 | 35935 ft | 461 kts | 313° |
| 2026-04-21 20:02 | 39.01078 | -103.54955 | 35968 ft | 462 kts | 312° |
| 2026-04-21 20:03 | 39.05478 | -103.60979 | 36010 ft | 462 kts | 312° |
| 2026-04-21 20:03 | 39.09881 | -103.67018 | 36033 ft | 462 kts | 312° |
| 2026-04-21 20:04 | 39.14279 | -103.73061 | 36054 ft | 462 kts | 312° |
| 2026-04-21 20:04 | 39.18678 | -103.79119 | 36059 ft | 462 kts | 312° |
| 2026-04-21 20:05 | 39.23067 | -103.85174 | 36056 ft | 462 kts | 311° |
| 2026-04-21 20:05 | 39.27458 | -103.91244 | 36023 ft | 462 kts | 311° |
| 2026-04-21 20:06 | 39.31842 | -103.97317 | 35999 ft | 462 kts | 311° |
| 2026-04-21 20:06 | 39.36195 | -104.03358 | 35962 ft | 462 kts | 311° |
| 2026-04-21 20:07 | 39.40571 | -104.09443 | 35945 ft | 462 kts | 311° |
| 2026-04-21 20:07 | 39.44942 | -104.15534 | 35919 ft | 462 kts | 311° |
| 2026-04-21 20:08 | 39.49307 | -104.21628 | 35926 ft | 461 kts | 311° |
| 2026-04-21 20:08 | 39.53671 | -104.27732 | 35942 ft | 461 kts | 311° |
| 2026-04-21 20:09 | 39.58024 | -104.33836 | 35980 ft | 461 kts | 310° |
| 2026-04-21 20:09 | 39.62349 | -104.39910 | 36017 ft | 461 kts | 310° |
| 2026-04-21 20:10 | 39.66823 | -104.45862 | 36033 ft | 464 kts | 322° |
| 2026-04-21 20:10 | 39.69669 | -104.47869 | 36086 ft | 467 kts | 338° |
| 2026-04-21 20:10 | 39.72745 | -104.49197 | 36093 ft | 468 kts | 341° |
| 2026-04-21 20:11 | 39.78992 | -104.51643 | 36085 ft | 468 kts | 341° |
| 2026-04-21 20:11 | 39.85216 | -104.54160 | 36081 ft | 469 kts | 340° |
| 2026-04-21 20:12 | 39.91424 | -104.56763 | 36059 ft | 469 kts | 340° |
| 2026-04-21 20:12 | 39.97629 | -104.59385 | 36037 ft | 468 kts | 338° |
| 2026-04-21 20:12 | 40.00483 | -104.61342 | 36015 ft | 463 kts | 319° |
| 2026-04-21 20:13 | 40.02739 | -104.64302 | 36023 ft | 458 kts | 304° |
| 2026-04-21 20:13 | 40.04357 | -104.67843 | 35997 ft | 454 kts | 290° |
| 2026-04-21 20:13 | 40.05280 | -104.71765 | 36014 ft | 451 kts | 282° |
| 2026-04-21 20:14 | 40.06659 | -104.79774 | 35973 ft | 453 kts | 280° |
| 2026-04-21 20:14 | 40.08018 | -104.87804 | 35874 ft | 453 kts | 281° |
| 2026-04-21 20:15 | 40.09440 | -104.95836 | 35665 ft | 457 kts | 281° |
| 2026-04-21 20:15 | 40.10168 | -104.99898 | 34994 ft | 458 kts | 281° |
| 2026-04-21 20:15 | 40.10886 | -105.03896 | 34364 ft | 458 kts | 281° |
| 2026-04-21 20:15 | 40.11612 | -105.07954 | 33472 ft | 459 kts | 281° |
| 2026-04-21 20:16 | 40.12339 | -105.12033 | 32538 ft | 461 kts | 282° |
| 2026-04-21 20:16 | 40.13063 | -105.16108 | 31606 ft | 462 kts | 281° |
| 2026-04-21 20:16 | 40.13767 | -105.20218 | 30661 ft | 463 kts | 278° |
| 2026-04-21 20:16 | 40.13915 | -105.24403 | 29548 ft | 464 kts | 265° |
| 2026-04-21 20:17 | 40.13672 | -105.28614 | 28350 ft | 466 kts | 264° |
| 2026-04-21 20:17 | 40.13397 | -105.32843 | 27133 ft | 467 kts | 264° |
| 2026-04-21 20:17 | 40.13131 | -105.37093 | 25906 ft | 469 kts | 264° |
| 2026-04-21 20:17 | 40.12888 | -105.41333 | 25036 ft | 464 kts | 265° |
| 2026-04-21 20:18 | 40.12740 | -105.44077 | 24907 ft | 450 kts | 265° |
| 2026-04-21 20:18 | 40.12466 | -105.49385 | 24619 ft | 426 kts | 265° |
| 2026-04-21 20:18 | 40.12273 | -105.53168 | 24456 ft | 410 kts | 265° |
| 2026-04-21 20:18 | 40.12085 | -105.56819 | 24364 ft | 396 kts | 265° |
| 2026-04-21 20:19 | 40.11902 | -105.60306 | 24223 ft | 383 kts | 265° |
| 2026-04-21 20:19 | 40.11721 | -105.63726 | 24022 ft | 374 kts | 265° |
| 2026-04-21 20:19 | 40.11550 | -105.67103 | 23554 ft | 371 kts | 264° |
| 2026-04-21 20:19 | 40.11386 | -105.70458 | 23053 ft | 368 kts | 265° |
| 2026-04-21 20:20 | 40.11224 | -105.73777 | 22602 ft | 364 kts | 265° |
| 2026-04-21 20:20 | 40.11062 | -105.77067 | 22142 ft | 361 kts | 264° |
| 2026-04-21 20:20 | 40.10901 | -105.80323 | 21706 ft | 357 kts | 264° |
| 2026-04-21 20:20 | 40.10740 | -105.83547 | 21255 ft | 354 kts | 264° |
| 2026-04-21 20:21 | 40.10579 | -105.86743 | 20804 ft | 351 kts | 264° |
| 2026-04-21 20:21 | 40.10418 | -105.89917 | 20360 ft | 348 kts | 264° |
| 2026-04-21 20:21 | 40.10257 | -105.93059 | 19924 ft | 345 kts | 264° |
| 2026-04-21 20:21 | 40.10097 | -105.96177 | 19262 ft | 343 kts | 264° |
| 2026-04-21 20:22 | 40.09938 | -105.99267 | 18830 ft | 340 kts | 264° |
| 2026-04-21 20:22 | 40.09617 | -106.05429 | 17774 ft | 340 kts | 264° |
| 2026-04-21 20:22 | 40.09457 | -106.08505 | 17307 ft | 338 kts | 264° |
| 2026-04-21 20:23 | 40.09299 | -106.11519 | 16852 ft | 336 kts | 264° |
| 2026-04-21 20:23 | 40.09139 | -106.14543 | 16410 ft | 332 kts | 264° |
| 2026-04-21 20:23 | 40.08978 | -106.17536 | 16003 ft | 328 kts | 263° |
| 2026-04-21 20:23 | 40.08483 | -106.20389 | 15792 ft | 316 kts | 248° |
| 2026-04-21 20:24 | 40.07692 | -106.23022 | 15636 ft | 307 kts | 246° |
| 2026-04-21 20:24 | 40.07159 | -106.24723 | 15546 ft | 305 kts | 246° |
| 2026-04-21 20:24 | 40.06243 | -106.27658 | 15395 ft | 303 kts | 246° |
| 2026-04-21 20:24 | 40.05452 | -106.30221 | 15265 ft | 306 kts | 246° |
| 2026-04-21 20:25 | 40.04666 | -106.32797 | 15133 ft | 303 kts | 247° |
| 2026-04-21 20:25 | 40.03907 | -106.35314 | 14985 ft | 292 kts | 247° |
| 2026-04-21 20:25 | 40.03180 | -106.37727 | 14871 ft | 280 kts | 247° |
| 2026-04-21 20:25 | 40.02476 | -106.40055 | 14742 ft | 272 kts | 247° |
| 2026-04-21 20:26 | 40.01787 | -106.42307 | 14618 ft | 262 kts | 244° |
| 2026-04-21 20:26 | 40.00738 | -106.44165 | 14496 ft | 250 kts | 221° |
| 2026-04-21 20:26 | 39.99404 | -106.45565 | 14428 ft | 244 kts | 217° |
| 2026-04-21 20:26 | 39.98050 | -106.46866 | 14311 ft | 245 kts | 216° |
| 2026-04-21 20:27 | 39.96669 | -106.48190 | 14223 ft | 248 kts | 217° |
| 2026-04-21 20:27 | 39.95286 | -106.49539 | 14121 ft | 249 kts | 217° |
| 2026-04-21 20:27 | 39.93897 | -106.50904 | 14012 ft | 251 kts | 217° |
| 2026-04-21 20:27 | 39.92501 | -106.52280 | 13892 ft | 252 kts | 217° |
| 2026-04-21 20:28 | 39.91093 | -106.53664 | 13702 ft | 254 kts | 217° |
| 2026-04-21 20:28 | 39.89677 | -106.55056 | 13487 ft | 255 kts | 217° |
| 2026-04-21 20:28 | 39.88268 | -106.56444 | 13306 ft | 253 kts | 217° |
| 2026-04-21 20:28 | 39.86879 | -106.57810 | 13074 ft | 246 kts | 218° |
| 2026-04-21 20:29 | 39.85538 | -106.59128 | 12908 ft | 239 kts | 217° |
| 2026-04-21 20:29 | 39.84225 | -106.60417 | 12739 ft | 234 kts | 217° |
| 2026-04-21 20:29 | 39.82888 | -106.61602 | 12502 ft | 232 kts | 202° |
| 2026-04-21 20:29 | 39.81333 | -106.62058 | 12323 ft | 227 kts | 188° |
| 2026-04-21 20:30 | 39.79794 | -106.62294 | 12145 ft | 218 kts | 188° |
| 2026-04-21 20:30 | 39.78307 | -106.62522 | 11934 ft | 211 kts | 189° |
| 2026-04-21 20:30 | 39.76859 | -106.62749 | 11738 ft | 209 kts | 189° |
| 2026-04-21 20:30 | 39.75419 | -106.62979 | 11511 ft | 209 kts | 188° |
| 2026-04-21 20:31 | 39.73978 | -106.63210 | 11319 ft | 208 kts | 189° |
| 2026-04-21 20:31 | 39.72544 | -106.63441 | 11115 ft | 208 kts | 189° |
| 2026-04-21 20:31 | 39.71106 | -106.63673 | 10928 ft | 209 kts | 189° |
| 2026-04-21 20:31 | 39.69722 | -106.64181 | 10809 ft | 209 kts | 216° |
| 2026-04-21 20:32 | 39.68644 | -106.65481 | 10557 ft | 214 kts | 229° |
| 2026-04-21 20:32 | 39.67645 | -106.66912 | 10302 ft | 211 kts | 230° |
| 2026-04-21 20:32 | 39.66848 | -106.68434 | 10026 ft | 205 kts | 252° |
| 2026-04-21 20:32 | 39.66628 | -106.70271 | 9802 ft | 207 kts | 264° |
| 2026-04-21 20:33 | 39.66438 | -106.72101 | 9670 ft | 214 kts | 260° |
| 2026-04-21 20:33 | 39.66202 | -106.74036 | 9359 ft | 214 kts | 261° |
| 2026-04-21 20:33 | 39.65997 | -106.75932 | 8992 ft | 206 kts | 262° |
| 2026-04-21 20:33 | 39.65803 | -106.77711 | 8657 ft | 194 kts | 261° |
| 2026-04-21 20:34 | 39.65611 | -106.79372 | 8356 ft | 176 kts | 262° |
| 2026-04-21 20:34 | 39.65454 | -106.80847 | 8187 ft | 156 kts | 262° |
| 2026-04-21 20:34 | 39.65313 | -106.82205 | 7741 ft | 153 kts | 261° |
| 2026-04-21 20:34 | 39.65158 | -106.83492 | 7660 ft | 139 kts | 260° |
| 2026-04-21 20:35 | 39.65023 | -106.84758 | 7471 ft | 144 kts | 260° |
| 2026-04-21 20:35 | 39.64884 | -106.86027 | 7228 ft | 140 kts | 261° |
| 2026-04-21 20:35 | 39.64747 | -106.87275 | 7036 ft | 135 kts | 262° |
| 2026-04-21 20:35 | 39.64615 | -106.88478 | 6922 ft | 136 kts | 263° |
| 2026-04-21 20:36 | 39.64484 | -106.89701 | 6673 ft | 141 kts | 267° |
| 2026-04-21 20:36 | 39.64348 | -106.90939 | 6530 ft | 127 kts | 263° |
| 2026-04-21 20:36 | 39.64255 | -106.91788 | 6505 ft | 63 kts | 262° |
| 2026-04-21 20:36 | 39.64209 | -106.92194 | 6492 ft | 24 kts | 260° |
| 2026-04-21 20:37 | 39.64137 | -106.92279 | 6490 ft | 12 kts | 175° |
| 2026-04-21 20:37 | 39.64100 | -106.92204 | 6493 ft | 12 kts | 77° |
| 2026-04-21 20:37 | 39.64112 | -106.92091 | 6496 ft | 15 kts | 81° |
| 2026-04-21 20:37 | 39.64127 | -106.91959 | 6500 ft | 15 kts | 82° |
| 2026-04-21 20:38 | 39.64142 | -106.91812 | 6504 ft | 16 kts | 82° |
| 2026-04-21 20:38 | 39.64157 | -106.91671 | 6508 ft | 16 kts | 82° |
| 2026-04-21 20:38 | 39.64125 | -106.91550 | 6511 ft | 14 kts | 120° |
| 2026-04-21 20:38 | 39.64124 | -106.91438 | 6516 ft | 7 kts | 83° |
| 2026-04-21 20:39 | 39.64129 | -106.91383 | 6516 ft | 6 kts | 84° |
| 2026-04-21 20:39 | 39.64107 | -106.91342 | 6517 ft | 6 kts | 153° |
| 2026-04-21 20:39 | 39.64079 | -106.91335 | 6519 ft | 0 kts | 171° |